sensor_id;sensor_type;location;lat;lon;timestamp;P1;durP1;ratioP1;P2;durP2;ratioP2
74465;SDS011;62916;50.044;15.938;2022-09-28T00:01:30;1.10;;;0.70;;
74465;SDS011;62916;50.044;15.938;2022-09-28T00:03:58;1.20;;;0.80;;
74465;SDS011;62916;50.044;15.938;2022-09-28T00:06:28;1.30;;;0.60;;
74465;SDS011;62916;50.044;15.938;2022-09-28T00:08:56;1.10;;;0.80;;
74465;SDS011;62916;50.044;15.938;2022-09-28T00:11:26;1.50;;;1.30;;
74465;SDS011;62916;50.044;15.938;2022-09-28T00:13:55;1.30;;;0.80;;
74465;SDS011;62916;50.044;15.938;2022-09-28T00:16:29;1.20;;;0.80;;
74465;SDS011;62916;50.044;15.938;2022-09-28T00:18:59;1.20;;;1.10;;
74465;SDS011;62916;50.044;15.938;2022-09-28T00:21:28;1.40;;;0.80;;
74465;SDS011;62916;50.044;15.938;2022-09-28T00:27:01;1.90;;;0.90;;
74465;SDS011;62916;50.044;15.938;2022-09-28T00:29:34;2.30;;;0.90;;
74465;SDS011;62916;50.044;15.938;2022-09-28T00:32:08;1.00;;;0.60;;
74465;SDS011;62916;50.044;15.938;2022-09-28T00:34:43;0.80;;;0.80;;
74465;SDS011;62916;50.044;15.938;2022-09-28T00:37:15;1.20;;;0.90;;
74465;SDS011;62916;50.044;15.938;2022-09-28T00:39:48;1.70;;;0.80;;
74465;SDS011;62916;50.044;15.938;2022-09-28T00:42:17;1.40;;;0.60;;
74465;SDS011;62916;50.044;15.938;2022-09-28T00:44:47;0.80;;;0.50;;
74465;SDS011;62916;50.044;15.938;2022-09-28T00:47:20;1.50;;;0.80;;
74465;SDS011;62916;50.044;15.938;2022-09-28T00:49:58;0.80;;;0.60;;
74465;SDS011;62916;50.044;15.938;2022-09-28T00:52:37;0.60;;;0.60;;
74465;SDS011;62916;50.044;15.938;2022-09-28T00:55:28;1.10;;;0.80;;
74465;SDS011;62916;50.044;15.938;2022-09-28T00:58:04;0.90;;;0.60;;
74465;SDS011;62916;50.044;15.938;2022-09-28T01:00:36;1.00;;;0.60;;
74465;SDS011;62916;50.044;15.938;2022-09-28T01:03:06;1.10;;;0.60;;
74465;SDS011;62916;50.044;15.938;2022-09-28T01:05:35;0.80;;;0.60;;
74465;SDS011;62916;50.044;15.938;2022-09-28T01:08:05;0.90;;;0.80;;
74465;SDS011;62916;50.044;15.938;2022-09-28T01:10:35;0.80;;;0.50;;
74465;SDS011;62916;50.044;15.938;2022-09-28T01:13:05;1.80;;;0.60;;
74465;SDS011;62916;50.044;15.938;2022-09-28T01:15:33;1.20;;;0.70;;
74465;SDS011;62916;50.044;15.938;2022-09-28T01:18:14;0.60;;;0.40;;
74465;SDS011;62916;50.044;15.938;2022-09-28T01:20:53;1.40;;;0.70;;
74465;SDS011;62916;50.044;15.938;2022-09-28T01:23:39;1.10;;;0.50;;
74465;SDS011;62916;50.044;15.938;2022-09-28T01:26:21;1.30;;;0.80;;
74465;SDS011;62916;50.044;15.938;2022-09-28T01:29:14;1.50;;;0.50;;
74465;SDS011;62916;50.044;15.938;2022-09-28T01:31:47;1.20;;;0.50;;
74465;SDS011;62916;50.044;15.938;2022-09-28T01:34:22;0.80;;;0.50;;
74465;SDS011;62916;50.044;15.938;2022-09-28T01:36:57;1.00;;;0.50;;
74465;SDS011;62916;50.044;15.938;2022-09-28T01:39:31;0.90;;;0.50;;
74465;SDS011;62916;50.044;15.938;2022-09-28T01:42:03;0.70;;;0.40;;
74465;SDS011;62916;50.044;15.938;2022-09-28T01:44:37;0.60;;;0.60;;
74465;SDS011;62916;50.044;15.938;2022-09-28T01:47:07;0.70;;;0.40;;
74465;SDS011;62916;50.044;15.938;2022-09-28T01:49:38;0.80;;;0.60;;
74465;SDS011;62916;50.044;15.938;2022-09-28T01:52:12;1.40;;;0.70;;
74465;SDS011;62916;50.044;15.938;2022-09-28T01:54:46;0.70;;;0.50;;
74465;SDS011;62916;50.044;15.938;2022-09-28T01:57:19;0.70;;;0.50;;
74465;SDS011;62916;50.044;15.938;2022-09-28T01:59:54;1.50;;;0.60;;
74465;SDS011;62916;50.044;15.938;2022-09-28T02:02:27;0.80;;;0.40;;
74465;SDS011;62916;50.044;15.938;2022-09-28T02:05:00;0.40;;;0.30;;
74465;SDS011;62916;50.044;15.938;2022-09-28T02:07:35;0.70;;;0.60;;
74465;SDS011;62916;50.044;15.938;2022-09-28T02:10:08;0.90;;;0.50;;
74465;SDS011;62916;50.044;15.938;2022-09-28T02:12:42;1.00;;;0.70;;
74465;SDS011;62916;50.044;15.938;2022-09-28T02:15:14;1.10;;;0.60;;
74465;SDS011;62916;50.044;15.938;2022-09-28T02:20:13;0.50;;;0.30;;
74465;SDS011;62916;50.044;15.938;2022-09-28T02:22:43;0.80;;;0.80;;
74465;SDS011;62916;50.044;15.938;2022-09-28T02:25:17;0.50;;;0.40;;
74465;SDS011;62916;50.044;15.938;2022-09-28T02:27:55;0.70;;;0.60;;
74465;SDS011;62916;50.044;15.938;2022-09-28T02:30:27;0.90;;;0.50;;
74465;SDS011;62916;50.044;15.938;2022-09-28T02:33:00;0.60;;;0.30;;
74465;SDS011;62916;50.044;15.938;2022-09-28T02:35:31;1.20;;;0.60;;
74465;SDS011;62916;50.044;15.938;2022-09-28T02:38:01;0.50;;;0.30;;
74465;SDS011;62916;50.044;15.938;2022-09-28T02:40:30;0.60;;;0.50;;
74465;SDS011;62916;50.044;15.938;2022-09-28T02:43:01;0.70;;;0.40;;
74465;SDS011;62916;50.044;15.938;2022-09-28T02:45:43;1.00;;;0.60;;
74465;SDS011;62916;50.044;15.938;2022-09-28T02:48:18;0.60;;;0.40;;
74465;SDS011;62916;50.044;15.938;2022-09-28T02:51:12;0.60;;;0.40;;
74465;SDS011;62916;50.044;15.938;2022-09-28T02:54:02;0.70;;;0.20;;
74465;SDS011;62916;50.044;15.938;2022-09-28T02:56:49;0.30;;;0.30;;
74465;SDS011;62916;50.044;15.938;2022-09-28T02:59:31;1.10;;;0.60;;
74465;SDS011;62916;50.044;15.938;2022-09-28T03:02:12;0.60;;;0.40;;
74465;SDS011;62916;50.044;15.938;2022-09-28T03:04:54;0.60;;;0.50;;
74465;SDS011;62916;50.044;15.938;2022-09-28T03:07:31;0.40;;;0.40;;
74465;SDS011;62916;50.044;15.938;2022-09-28T03:10:04;0.80;;;0.40;;
74465;SDS011;62916;50.044;15.938;2022-09-28T03:12:39;0.90;;;0.40;;
74465;SDS011;62916;50.044;15.938;2022-09-28T03:15:11;0.60;;;0.40;;
74465;SDS011;62916;50.044;15.938;2022-09-28T03:17:45;0.80;;;0.80;;
74465;SDS011;62916;50.044;15.938;2022-09-28T03:20:13;0.60;;;0.40;;
74465;SDS011;62916;50.044;15.938;2022-09-28T03:22:43;0.90;;;0.50;;
74465;SDS011;62916;50.044;15.938;2022-09-28T03:25:31;0.80;;;0.40;;
74465;SDS011;62916;50.044;15.938;2022-09-28T03:28:00;0.50;;;0.50;;
74465;SDS011;62916;50.044;15.938;2022-09-28T03:30:28;0.50;;;0.30;;
74465;SDS011;62916;50.044;15.938;2022-09-28T03:32:57;1.20;;;0.30;;
74465;SDS011;62916;50.044;15.938;2022-09-28T03:35:25;0.70;;;0.40;;
74465;SDS011;62916;50.044;15.938;2022-09-28T03:37:54;0.60;;;0.40;;
74465;SDS011;62916;50.044;15.938;2022-09-28T03:40:22;0.60;;;0.30;;
74465;SDS011;62916;50.044;15.938;2022-09-28T03:42:50;0.90;;;0.50;;
74465;SDS011;62916;50.044;15.938;2022-09-28T03:45:19;0.70;;;0.50;;
74465;SDS011;62916;50.044;15.938;2022-09-28T03:47:47;0.50;;;0.40;;
74465;SDS011;62916;50.044;15.938;2022-09-28T03:50:15;0.70;;;0.40;;
74465;SDS011;62916;50.044;15.938;2022-09-28T03:52:44;0.30;;;0.30;;
74465;SDS011;62916;50.044;15.938;2022-09-28T03:55:12;0.60;;;0.30;;
74465;SDS011;62916;50.044;15.938;2022-09-28T03:57:41;0.50;;;0.50;;
74465;SDS011;62916;50.044;15.938;2022-09-28T04:00:10;0.50;;;0.30;;
74465;SDS011;62916;50.044;15.938;2022-09-28T04:02:39;0.70;;;0.30;;
74465;SDS011;62916;50.044;15.938;2022-09-28T04:05:08;1.20;;;0.30;;
74465;SDS011;62916;50.044;15.938;2022-09-28T04:07:36;0.70;;;0.50;;
74465;SDS011;62916;50.044;15.938;2022-09-28T04:10:05;1.10;;;0.50;;
74465;SDS011;62916;50.044;15.938;2022-09-28T04:12:35;0.30;;;0.20;;
74465;SDS011;62916;50.044;15.938;2022-09-28T04:15:04;0.30;;;0.30;;
74465;SDS011;62916;50.044;15.938;2022-09-28T04:17:33;0.70;;;0.50;;
74465;SDS011;62916;50.044;15.938;2022-09-28T04:20:07;0.90;;;0.50;;
74465;SDS011;62916;50.044;15.938;2022-09-28T04:22:35;0.60;;;0.40;;
74465;SDS011;62916;50.044;15.938;2022-09-28T04:25:04;0.40;;;0.30;;
74465;SDS011;62916;50.044;15.938;2022-09-28T04:27:32;0.90;;;0.50;;
74465;SDS011;62916;50.044;15.938;2022-09-28T04:30:19;0.70;;;0.70;;
74465;SDS011;62916;50.044;15.938;2022-09-28T04:32:47;0.80;;;0.40;;
74465;SDS011;62916;50.044;15.938;2022-09-28T04:35:15;0.30;;;0.30;;
74465;SDS011;62916;50.044;15.938;2022-09-28T04:37:44;0.60;;;0.30;;
74465;SDS011;62916;50.044;15.938;2022-09-28T04:40:12;0.50;;;0.20;;
74465;SDS011;62916;50.044;15.938;2022-09-28T04:42:40;0.60;;;0.50;;
74465;SDS011;62916;50.044;15.938;2022-09-28T04:45:09;0.70;;;0.40;;
74465;SDS011;62916;50.044;15.938;2022-09-28T04:47:37;0.70;;;0.40;;
74465;SDS011;62916;50.044;15.938;2022-09-28T04:50:06;0.50;;;0.20;;
74465;SDS011;62916;50.044;15.938;2022-09-28T04:52:35;0.30;;;0.20;;
74465;SDS011;62916;50.044;15.938;2022-09-28T04:55:05;0.60;;;0.50;;
74465;SDS011;62916;50.044;15.938;2022-09-28T04:57:35;0.90;;;0.50;;
74465;SDS011;62916;50.044;15.938;2022-09-28T05:00:04;0.30;;;0.30;;
74465;SDS011;62916;50.044;15.938;2022-09-28T05:02:33;1.20;;;0.50;;
74465;SDS011;62916;50.044;15.938;2022-09-28T05:05:02;4.20;;;0.50;;
74465;SDS011;62916;50.044;15.938;2022-09-28T05:07:31;0.60;;;0.40;;
74465;SDS011;62916;50.044;15.938;2022-09-28T05:09:59;0.50;;;0.40;;
74465;SDS011;62916;50.044;15.938;2022-09-28T05:12:27;0.70;;;0.30;;
74465;SDS011;62916;50.044;15.938;2022-09-28T05:14:55;0.30;;;0.30;;
74465;SDS011;62916;50.044;15.938;2022-09-28T05:17:24;0.70;;;0.40;;
74465;SDS011;62916;50.044;15.938;2022-09-28T05:19:52;0.40;;;0.30;;
74465;SDS011;62916;50.044;15.938;2022-09-28T05:22:20;0.70;;;0.60;;
74465;SDS011;62916;50.044;15.938;2022-09-28T05:24:48;0.70;;;0.40;;
74465;SDS011;62916;50.044;15.938;2022-09-28T05:27:17;0.20;;;0.20;;
74465;SDS011;62916;50.044;15.938;2022-09-28T05:29:45;0.60;;;0.60;;
74465;SDS011;62916;50.044;15.938;2022-09-28T05:32:13;0.60;;;0.40;;
74465;SDS011;62916;50.044;15.938;2022-09-28T05:34:42;1.40;;;0.40;;
74465;SDS011;62916;50.044;15.938;2022-09-28T05:37:16;0.30;;;0.20;;
74465;SDS011;62916;50.044;15.938;2022-09-28T05:39:45;0.70;;;0.40;;
74465;SDS011;62916;50.044;15.938;2022-09-28T05:42:13;0.50;;;0.40;;
74465;SDS011;62916;50.044;15.938;2022-09-28T05:44:41;0.20;;;0.20;;
74465;SDS011;62916;50.044;15.938;2022-09-28T05:47:09;0.50;;;0.20;;
74465;SDS011;62916;50.044;15.938;2022-09-28T05:49:37;0.90;;;0.40;;
74465;SDS011;62916;50.044;15.938;2022-09-28T05:52:05;0.30;;;0.30;;
74465;SDS011;62916;50.044;15.938;2022-09-28T05:54:33;0.50;;;0.30;;
74465;SDS011;62916;50.044;15.938;2022-09-28T05:57:01;0.60;;;0.30;;
74465;SDS011;62916;50.044;15.938;2022-09-28T05:59:32;0.80;;;0.50;;
74465;SDS011;62916;50.044;15.938;2022-09-28T06:02:02;0.80;;;0.40;;
74465;SDS011;62916;50.044;15.938;2022-09-28T06:04:31;0.20;;;0.20;;
74465;SDS011;62916;50.044;15.938;2022-09-28T06:06:59;0.50;;;0.50;;
74465;SDS011;62916;50.044;15.938;2022-09-28T06:09:27;0.60;;;0.40;;
74465;SDS011;62916;50.044;15.938;2022-09-28T06:11:57;0.80;;;0.50;;
74465;SDS011;62916;50.044;15.938;2022-09-28T06:14:25;0.50;;;0.30;;
74465;SDS011;62916;50.044;15.938;2022-09-28T06:16:53;0.80;;;0.50;;
74465;SDS011;62916;50.044;15.938;2022-09-28T06:19:21;0.40;;;0.20;;
74465;SDS011;62916;50.044;15.938;2022-09-28T06:21:50;1.00;;;0.30;;
74465;SDS011;62916;50.044;15.938;2022-09-28T06:24:18;1.40;;;0.20;;
74465;SDS011;62916;50.044;15.938;2022-09-28T06:26:46;0.40;;;0.30;;
74465;SDS011;62916;50.044;15.938;2022-09-28T06:29:14;0.60;;;0.20;;
74465;SDS011;62916;50.044;15.938;2022-09-28T06:31:45;1.70;;;0.70;;
74465;SDS011;62916;50.044;15.938;2022-09-28T06:34:13;0.90;;;0.40;;
74465;SDS011;62916;50.044;15.938;2022-09-28T06:36:43;1.00;;;0.20;;
74465;SDS011;62916;50.044;15.938;2022-09-28T06:39:11;1.50;;;0.40;;
74465;SDS011;62916;50.044;15.938;2022-09-28T06:41:39;0.30;;;0.20;;
74465;SDS011;62916;50.044;15.938;2022-09-28T06:44:08;1.80;;;0.40;;
74465;SDS011;62916;50.044;15.938;2022-09-28T06:46:36;0.40;;;0.20;;
74465;SDS011;62916;50.044;15.938;2022-09-28T06:49:05;0.70;;;0.20;;
74465;SDS011;62916;50.044;15.938;2022-09-28T06:51:35;0.80;;;0.30;;
74465;SDS011;62916;50.044;15.938;2022-09-28T06:54:03;0.50;;;0.30;;
74465;SDS011;62916;50.044;15.938;2022-09-28T06:56:32;0.50;;;0.30;;
74465;SDS011;62916;50.044;15.938;2022-09-28T06:59:00;1.80;;;0.50;;
74465;SDS011;62916;50.044;15.938;2022-09-28T07:01:28;1.10;;;0.40;;
74465;SDS011;62916;50.044;15.938;2022-09-28T07:03:56;1.50;;;0.30;;
74465;SDS011;62916;50.044;15.938;2022-09-28T07:06:27;0.60;;;0.50;;
74465;SDS011;62916;50.044;15.938;2022-09-28T07:08:57;0.40;;;0.20;;
74465;SDS011;62916;50.044;15.938;2022-09-28T07:11:48;0.40;;;0.30;;
74465;SDS011;62916;50.044;15.938;2022-09-28T07:14:18;1.80;;;0.30;;
74465;SDS011;62916;50.044;15.938;2022-09-28T07:17:07;2.50;;;0.30;;
74465;SDS011;62916;50.044;15.938;2022-09-28T07:19:40;0.60;;;0.30;;
74465;SDS011;62916;50.044;15.938;2022-09-28T07:22:08;1.40;;;0.40;;
74465;SDS011;62916;50.044;15.938;2022-09-28T07:24:44;1.30;;;0.30;;
74465;SDS011;62916;50.044;15.938;2022-09-28T07:27:13;1.10;;;0.50;;
74465;SDS011;62916;50.044;15.938;2022-09-28T07:29:41;4.00;;;0.60;;
74465;SDS011;62916;50.044;15.938;2022-09-28T07:32:09;1.10;;;0.30;;
74465;SDS011;62916;50.044;15.938;2022-09-28T07:34:37;1.30;;;0.40;;
74465;SDS011;62916;50.044;15.938;2022-09-28T07:37:08;1.20;;;0.40;;
74465;SDS011;62916;50.044;15.938;2022-09-28T07:39:38;0.20;;;0.20;;
74465;SDS011;62916;50.044;15.938;2022-09-28T07:42:20;0.30;;;0.10;;
74465;SDS011;62916;50.044;15.938;2022-09-28T07:44:49;1.70;;;0.40;;
74465;SDS011;62916;50.044;15.938;2022-09-28T07:47:17;0.10;;;0.10;;
74465;SDS011;62916;50.044;15.938;2022-09-28T07:49:57;1.80;;;0.20;;
74465;SDS011;62916;50.044;15.938;2022-09-28T07:52:25;2.00;;;0.30;;
74465;SDS011;62916;50.044;15.938;2022-09-28T07:54:54;1.20;;;0.40;;
74465;SDS011;62916;50.044;15.938;2022-09-28T07:57:22;1.20;;;0.50;;
74465;SDS011;62916;50.044;15.938;2022-09-28T07:59:50;1.30;;;0.40;;
74465;SDS011;62916;50.044;15.938;2022-09-28T08:02:19;1.30;;;0.30;;
74465;SDS011;62916;50.044;15.938;2022-09-28T08:04:48;0.40;;;0.30;;
74465;SDS011;62916;50.044;15.938;2022-09-28T08:07:16;1.30;;;0.70;;
74465;SDS011;62916;50.044;15.938;2022-09-28T08:09:50;0.90;;;0.60;;
74465;SDS011;62916;50.044;15.938;2022-09-28T08:12:18;0.40;;;0.30;;
74465;SDS011;62916;50.044;15.938;2022-09-28T08:14:46;0.80;;;0.40;;
74465;SDS011;62916;50.044;15.938;2022-09-28T08:17:16;0.80;;;0.60;;
74465;SDS011;62916;50.044;15.938;2022-09-28T08:19:44;3.10;;;1.50;;
74465;SDS011;62916;50.044;15.938;2022-09-28T08:22:30;4.90;;;1.10;;
74465;SDS011;62916;50.044;15.938;2022-09-28T08:24:58;3.10;;;0.90;;
74465;SDS011;62916;50.044;15.938;2022-09-28T08:27:26;2.30;;;1.20;;
74465;SDS011;62916;50.044;15.938;2022-09-28T08:29:55;2.20;;;0.90;;
74465;SDS011;62916;50.044;15.938;2022-09-28T08:32:23;2.20;;;0.80;;
74465;SDS011;62916;50.044;15.938;2022-09-28T08:34:51;1.60;;;0.90;;
74465;SDS011;62916;50.044;15.938;2022-09-28T08:37:21;2.40;;;1.00;;
74465;SDS011;62916;50.044;15.938;2022-09-28T08:39:49;3.00;;;0.90;;
74465;SDS011;62916;50.044;15.938;2022-09-28T08:42:22;2.00;;;0.90;;
74465;SDS011;62916;50.044;15.938;2022-09-28T08:44:59;1.40;;;0.70;;
74465;SDS011;62916;50.044;15.938;2022-09-28T08:47:35;1.10;;;0.80;;
74465;SDS011;62916;50.044;15.938;2022-09-28T08:50:29;1.20;;;0.80;;
74465;SDS011;62916;50.044;15.938;2022-09-28T08:53:02;1.20;;;0.70;;
74465;SDS011;62916;50.044;15.938;2022-09-28T08:55:38;2.40;;;0.70;;
74465;SDS011;62916;50.044;15.938;2022-09-28T08:58:11;1.70;;;1.00;;
74465;SDS011;62916;50.044;15.938;2022-09-28T09:00:45;2.60;;;0.70;;
74465;SDS011;62916;50.044;15.938;2022-09-28T09:03:16;2.20;;;0.50;;
74465;SDS011;62916;50.044;15.938;2022-09-28T09:05:51;2.10;;;0.90;;
74465;SDS011;62916;50.044;15.938;2022-09-28T09:08:38;2.00;;;0.80;;
74465;SDS011;62916;50.044;15.938;2022-09-28T09:11:21;0.90;;;0.60;;
74465;SDS011;62916;50.044;15.938;2022-09-28T09:14:09;0.80;;;0.60;;
74465;SDS011;62916;50.044;15.938;2022-09-28T09:16:49;1.80;;;0.70;;
74465;SDS011;62916;50.044;15.938;2022-09-28T09:19:31;1.40;;;0.60;;
74465;SDS011;62916;50.044;15.938;2022-09-28T09:22:09;1.20;;;0.60;;
74465;SDS011;62916;50.044;15.938;2022-09-28T09:24:46;1.40;;;0.50;;
74465;SDS011;62916;50.044;15.938;2022-09-28T09:27:28;1.00;;;0.70;;
74465;SDS011;62916;50.044;15.938;2022-09-28T09:30:08;2.80;;;0.60;;
74465;SDS011;62916;50.044;15.938;2022-09-28T09:32:53;1.30;;;0.50;;
74465;SDS011;62916;50.044;15.938;2022-09-28T09:35:43;1.90;;;0.60;;
74465;SDS011;62916;50.044;15.938;2022-09-28T09:41:18;1.10;;;0.70;;
74465;SDS011;62916;50.044;15.938;2022-09-28T09:46:53;3.60;;;0.50;;
74465;SDS011;62916;50.044;15.938;2022-09-28T09:49:25;1.80;;;0.50;;
74465;SDS011;62916;50.044;15.938;2022-09-28T09:52:02;1.90;;;0.50;;
74465;SDS011;62916;50.044;15.938;2022-09-28T09:54:36;1.90;;;0.50;;
74465;SDS011;62916;50.044;15.938;2022-09-28T09:57:10;1.20;;;0.50;;
74465;SDS011;62916;50.044;15.938;2022-09-28T09:59:43;1.50;;;0.60;;
74465;SDS011;62916;50.044;15.938;2022-09-28T10:02:14;1.20;;;0.50;;
74465;SDS011;62916;50.044;15.938;2022-09-28T10:04:48;2.50;;;0.70;;
74465;SDS011;62916;50.044;15.938;2022-09-28T10:07:22;0.90;;;0.60;;
74465;SDS011;62916;50.044;15.938;2022-09-28T10:09:55;3.30;;;0.80;;
74465;SDS011;62916;50.044;15.938;2022-09-28T10:12:24;1.20;;;0.50;;
74465;SDS011;62916;50.044;15.938;2022-09-28T10:14:52;0.60;;;0.50;;
74465;SDS011;62916;50.044;15.938;2022-09-28T10:17:21;1.70;;;0.70;;
74465;SDS011;62916;50.044;15.938;2022-09-28T10:19:53;2.20;;;0.70;;
74465;SDS011;62916;50.044;15.938;2022-09-28T10:22:23;1.60;;;0.50;;
74465;SDS011;62916;50.044;15.938;2022-09-28T10:24:54;4.30;;;0.70;;
74465;SDS011;62916;50.044;15.938;2022-09-28T10:27:25;1.70;;;0.50;;
74465;SDS011;62916;50.044;15.938;2022-09-28T10:29:56;1.40;;;0.50;;
74465;SDS011;62916;50.044;15.938;2022-09-28T10:32:35;1.20;;;0.60;;
74465;SDS011;62916;50.044;15.938;2022-09-28T10:35:15;0.60;;;0.40;;
74465;SDS011;62916;50.044;15.938;2022-09-28T10:37:50;2.80;;;0.50;;
74465;SDS011;62916;50.044;15.938;2022-09-28T10:40:26;4.00;;;0.70;;
74465;SDS011;62916;50.044;15.938;2022-09-28T10:43:00;3.00;;;0.50;;
74465;SDS011;62916;50.044;15.938;2022-09-28T17:49:30;4.90;;;3.90;;
74465;SDS011;62916;50.044;15.938;2022-09-28T17:51:58;3.80;;;3.40;;
74465;SDS011;62916;50.044;15.938;2022-09-28T17:54:27;4.00;;;3.60;;
74465;SDS011;62916;50.044;15.938;2022-09-28T17:56:55;4.00;;;3.70;;
74465;SDS011;62916;50.044;15.938;2022-09-28T17:59:23;4.00;;;3.80;;
74465;SDS011;62916;50.044;15.938;2022-09-28T18:01:53;4.30;;;3.90;;
74465;SDS011;62916;50.044;15.938;2022-09-28T18:04:27;5.10;;;4.60;;
74465;SDS011;62916;50.044;15.938;2022-09-28T18:07:15;4.00;;;3.70;;
74465;SDS011;62916;50.044;15.938;2022-09-28T18:09:43;3.80;;;3.50;;
74465;SDS011;62916;50.044;15.938;2022-09-28T18:12:11;3.80;;;3.30;;
74465;SDS011;62916;50.044;15.938;2022-09-28T18:14:39;4.60;;;4.30;;
74465;SDS011;62916;50.044;15.938;2022-09-28T18:17:08;4.40;;;4.10;;
74465;SDS011;62916;50.044;15.938;2022-09-28T18:19:36;4.40;;;4.10;;
74465;SDS011;62916;50.044;15.938;2022-09-28T18:22:04;3.30;;;3.10;;
74465;SDS011;62916;50.044;15.938;2022-09-28T18:24:32;4.00;;;3.60;;
74465;SDS011;62916;50.044;15.938;2022-09-28T18:27:00;3.50;;;3.20;;
74465;SDS011;62916;50.044;15.938;2022-09-28T18:29:28;4.10;;;3.80;;
74465;SDS011;62916;50.044;15.938;2022-09-28T18:31:59;3.90;;;3.10;;
74465;SDS011;62916;50.044;15.938;2022-09-28T18:34:28;4.70;;;4.30;;
74465;SDS011;62916;50.044;15.938;2022-09-28T18:36:56;4.10;;;3.80;;
74465;SDS011;62916;50.044;15.938;2022-09-28T18:39:24;4.40;;;4.00;;
74465;SDS011;62916;50.044;15.938;2022-09-28T18:41:53;4.60;;;3.40;;
74465;SDS011;62916;50.044;15.938;2022-09-28T18:44:21;3.80;;;3.50;;
74465;SDS011;62916;50.044;15.938;2022-09-28T18:46:49;3.40;;;3.10;;
74465;SDS011;62916;50.044;15.938;2022-09-28T18:49:17;3.90;;;3.00;;
74465;SDS011;62916;50.044;15.938;2022-09-28T18:51:46;4.00;;;3.10;;
74465;SDS011;62916;50.044;15.938;2022-09-28T18:54:14;3.70;;;3.40;;
74465;SDS011;62916;50.044;15.938;2022-09-28T18:56:43;4.30;;;3.90;;
74465;SDS011;62916;50.044;15.938;2022-09-28T18:59:11;3.80;;;3.50;;
74465;SDS011;62916;50.044;15.938;2022-09-28T19:01:40;3.50;;;3.30;;
74465;SDS011;62916;50.044;15.938;2022-09-28T19:04:09;4.50;;;4.20;;
74465;SDS011;62916;50.044;15.938;2022-09-28T19:06:39;3.70;;;3.40;;
74465;SDS011;62916;50.044;15.938;2022-09-28T19:09:10;4.00;;;2.90;;
74465;SDS011;62916;50.044;15.938;2022-09-28T19:11:38;3.50;;;3.00;;
74465;SDS011;62916;50.044;15.938;2022-09-28T19:14:07;3.70;;;3.40;;
74465;SDS011;62916;50.044;15.938;2022-09-28T19:16:40;3.90;;;3.60;;
74465;SDS011;62916;50.044;15.938;2022-09-28T19:19:10;4.20;;;3.70;;
74465;SDS011;62916;50.044;15.938;2022-09-28T19:21:40;3.50;;;3.20;;
74465;SDS011;62916;50.044;15.938;2022-09-28T19:24:09;4.90;;;2.70;;
74465;SDS011;62916;50.044;15.938;2022-09-28T19:26:39;3.30;;;3.00;;
74465;SDS011;62916;50.044;15.938;2022-09-28T19:29:08;6.00;;;3.80;;
74465;SDS011;62916;50.044;15.938;2022-09-28T19:31:38;3.40;;;3.10;;
74465;SDS011;62916;50.044;15.938;2022-09-28T19:34:08;3.30;;;3.00;;
74465;SDS011;62916;50.044;15.938;2022-09-28T19:36:40;3.10;;;2.90;;
74465;SDS011;62916;50.044;15.938;2022-09-28T19:39:08;3.00;;;2.80;;
74465;SDS011;62916;50.044;15.938;2022-09-28T19:41:42;3.70;;;3.30;;
74465;SDS011;62916;50.044;15.938;2022-09-28T19:44:15;3.10;;;2.90;;
74465;SDS011;62916;50.044;15.938;2022-09-28T19:46:50;3.30;;;3.00;;
74465;SDS011;62916;50.044;15.938;2022-09-28T19:49:20;3.70;;;3.40;;
74465;SDS011;62916;50.044;15.938;2022-09-28T19:51:49;3.10;;;2.90;;
74465;SDS011;62916;50.044;15.938;2022-09-28T19:54:39;3.90;;;2.90;;
74465;SDS011;62916;50.044;15.938;2022-09-28T19:57:09;2.70;;;2.50;;
74465;SDS011;62916;50.044;15.938;2022-09-28T19:59:37;3.20;;;2.90;;
74465;SDS011;62916;50.044;15.938;2022-09-28T20:02:06;2.70;;;2.50;;
74465;SDS011;62916;50.044;15.938;2022-09-28T20:04:36;2.90;;;2.70;;
74465;SDS011;62916;50.044;15.938;2022-09-28T20:07:04;3.50;;;3.20;;
74465;SDS011;62916;50.044;15.938;2022-09-28T20:09:32;3.10;;;2.90;;
74465;SDS011;62916;50.044;15.938;2022-09-28T20:12:01;3.30;;;2.50;;
74465;SDS011;62916;50.044;15.938;2022-09-28T20:14:29;3.00;;;2.70;;
74465;SDS011;62916;50.044;15.938;2022-09-28T20:17:04;2.80;;;2.60;;
74465;SDS011;62916;50.044;15.938;2022-09-28T20:19:32;3.80;;;3.40;;
74465;SDS011;62916;50.044;15.938;2022-09-28T20:22:01;2.90;;;2.60;;
74465;SDS011;62916;50.044;15.938;2022-09-28T20:24:30;4.00;;;2.80;;
74465;SDS011;62916;50.044;15.938;2022-09-28T20:26:58;3.10;;;2.90;;
74465;SDS011;62916;50.044;15.938;2022-09-28T20:29:27;10.20;;;2.80;;
74465;SDS011;62916;50.044;15.938;2022-09-28T20:31:57;6.30;;;2.70;;
74465;SDS011;62916;50.044;15.938;2022-09-28T20:34:25;3.10;;;2.40;;
74465;SDS011;62916;50.044;15.938;2022-09-28T20:36:53;3.00;;;2.30;;
74465;SDS011;62916;50.044;15.938;2022-09-28T20:39:21;2.90;;;2.70;;
74465;SDS011;62916;50.044;15.938;2022-09-28T20:41:50;4.30;;;2.80;;
74465;SDS011;62916;50.044;15.938;2022-09-28T20:44:18;2.60;;;2.40;;
74465;SDS011;62916;50.044;15.938;2022-09-28T20:46:48;4.60;;;2.50;;
74465;SDS011;62916;50.044;15.938;2022-09-28T20:49:16;2.60;;;2.40;;
74465;SDS011;62916;50.044;15.938;2022-09-28T20:51:44;2.70;;;2.50;;
74465;SDS011;62916;50.044;15.938;2022-09-28T20:54:12;2.60;;;2.40;;
74465;SDS011;62916;50.044;15.938;2022-09-28T20:56:41;2.60;;;2.40;;
74465;SDS011;62916;50.044;15.938;2022-09-28T20:59:09;3.90;;;2.80;;
74465;SDS011;62916;50.044;15.938;2022-09-28T21:01:38;2.80;;;2.60;;
74465;SDS011;62916;50.044;15.938;2022-09-28T21:04:07;2.70;;;2.50;;
74465;SDS011;62916;50.044;15.938;2022-09-28T21:06:37;2.90;;;2.50;;
74465;SDS011;62916;50.044;15.938;2022-09-28T21:09:07;2.80;;;2.50;;
74465;SDS011;62916;50.044;15.938;2022-09-28T21:11:36;2.50;;;2.30;;
74465;SDS011;62916;50.044;15.938;2022-09-28T21:14:05;3.20;;;2.50;;
74465;SDS011;62916;50.044;15.938;2022-09-28T21:16:35;2.50;;;2.30;;
74465;SDS011;62916;50.044;15.938;2022-09-28T21:19:04;2.50;;;2.10;;
74465;SDS011;62916;50.044;15.938;2022-09-28T21:21:32;2.70;;;2.50;;
74465;SDS011;62916;50.044;15.938;2022-09-28T21:24:00;2.30;;;2.10;;
74465;SDS011;62916;50.044;15.938;2022-09-28T21:26:28;2.60;;;2.40;;
74465;SDS011;62916;50.044;15.938;2022-09-28T21:28:57;2.60;;;2.30;;
74465;SDS011;62916;50.044;15.938;2022-09-28T21:31:27;2.80;;;2.60;;
74465;SDS011;62916;50.044;15.938;2022-09-28T21:33:58;2.50;;;2.30;;
74465;SDS011;62916;50.044;15.938;2022-09-28T21:36:26;2.50;;;2.30;;
74465;SDS011;62916;50.044;15.938;2022-09-28T21:38:54;2.70;;;2.50;;
74465;SDS011;62916;50.044;15.938;2022-09-28T21:41:22;2.40;;;2.20;;
74465;SDS011;62916;50.044;15.938;2022-09-28T21:43:51;2.60;;;2.30;;
74465;SDS011;62916;50.044;15.938;2022-09-28T21:46:19;3.20;;;2.20;;
74465;SDS011;62916;50.044;15.938;2022-09-28T21:48:50;2.10;;;2.00;;
74465;SDS011;62916;50.044;15.938;2022-09-28T21:51:19;2.30;;;2.10;;
74465;SDS011;62916;50.044;15.938;2022-09-28T21:53:47;2.40;;;2.20;;
74465;SDS011;62916;50.044;15.938;2022-09-28T21:56:16;3.00;;;2.70;;
74465;SDS011;62916;50.044;15.938;2022-09-28T21:58:44;2.60;;;2.40;;
74465;SDS011;62916;50.044;15.938;2022-09-28T22:01:13;2.40;;;2.20;;
74465;SDS011;62916;50.044;15.938;2022-09-28T22:03:44;2.50;;;2.30;;
74465;SDS011;62916;50.044;15.938;2022-09-28T22:06:14;2.30;;;2.00;;
74465;SDS011;62916;50.044;15.938;2022-09-28T22:08:43;2.50;;;2.00;;
74465;SDS011;62916;50.044;15.938;2022-09-28T22:11:13;2.50;;;2.30;;
74465;SDS011;62916;50.044;15.938;2022-09-28T22:13:42;2.40;;;2.20;;